createdAt,value
2023-03-29T00:01:10.763Z,6.50
2023-03-29T00:05:22.971Z,6.50
2023-03-29T00:09:33.633Z,6.50
2023-03-29T00:13:42.222Z,6.60
2023-03-29T00:17:50.942Z,6.60
2023-03-29T00:21:59.593Z,6.60
2023-03-29T00:26:08.570Z,6.60
2023-03-29T00:30:17.590Z,6.60
2023-03-29T00:34:45.935Z,6.60
2023-03-29T00:38:56.245Z,6.60
2023-03-29T00:43:06.436Z,6.60
2023-03-29T00:47:15.068Z,6.60
2023-03-29T00:51:26.726Z,6.60
2023-03-29T00:55:38.466Z,6.60
2023-03-29T00:59:49.175Z,6.60
2023-03-29T01:04:08.496Z,6.60
2023-03-29T01:08:32.149Z,6.60
2023-03-29T01:12:47.022Z,6.60
2023-03-29T01:16:55.847Z,6.60
2023-03-29T01:21:20.395Z,6.60
2023-03-29T01:25:41.293Z,6.60
2023-03-29T01:29:54.151Z,6.60
2023-03-29T01:34:08.444Z,6.60
2023-03-29T01:38:53.003Z,6.60
2023-03-29T01:43:10.907Z,6.60
2023-03-29T01:47:22.771Z,6.60
2023-03-29T01:51:58.204Z,6.60
2023-03-29T01:56:09.829Z,6.70
2023-03-29T02:00:21.492Z,6.70
2023-03-29T02:04:43.918Z,6.70
2023-03-29T02:08:54.347Z,6.70
2023-03-29T02:13:03.101Z,6.70
2023-03-29T02:17:23.577Z,6.70
2023-03-29T02:21:35.234Z,6.70
2023-03-29T02:25:45.582Z,6.70
2023-03-29T02:29:54.768Z,6.70
2023-03-29T02:34:08.969Z,6.70
2023-03-29T02:42:33.509Z,6.70
2023-03-29T02:46:43.988Z,6.80
2023-03-29T02:50:55.786Z,6.70
2023-03-29T02:55:07.816Z,6.70
2023-03-29T02:59:19.228Z,6.70
2023-03-29T03:03:28.011Z,6.70
2023-03-29T03:07:37.373Z,6.80
2023-03-29T03:11:46.208Z,6.80
2023-03-29T03:15:55.226Z,6.80
2023-03-29T03:20:05.217Z,6.70
2023-03-29T03:24:14.144Z,6.80
2023-03-29T03:28:24.366Z,6.80
2023-03-29T03:32:35.233Z,6.80
2023-03-29T03:36:43.827Z,6.80
2023-03-29T03:40:57.189Z,6.80
2023-03-29T03:45:06.270Z,6.80
2023-03-29T03:49:14.871Z,6.90
2023-03-29T03:53:24.513Z,6.90
2023-03-29T03:57:33.295Z,6.90
2023-03-29T04:01:45.359Z,6.90
2023-03-29T04:05:53.949Z,6.90
2023-03-29T04:10:02.567Z,6.80
2023-03-29T04:14:11.289Z,6.80
2023-03-29T04:18:20.961Z,6.90
2023-03-29T04:22:29.682Z,6.80
2023-03-29T04:26:38.405Z,6.90
2023-03-29T04:30:48.258Z,6.80
2023-03-29T04:34:57.416Z,6.80
2023-03-29T04:39:07.983Z,6.80
2023-03-29T04:43:16.720Z,6.90
2023-03-29T04:47:25.465Z,6.80
2023-03-29T04:51:34.302Z,6.90
2023-03-29T04:55:43.023Z,6.80
2023-03-29T04:59:51.641Z,6.90
2023-03-29T05:04:00.267Z,6.90
2023-03-29T05:08:09.509Z,6.80
2023-03-29T05:12:18.087Z,6.90
2023-03-29T05:16:28.347Z,6.90
2023-03-29T05:20:37.806Z,6.90
2023-03-29T05:24:46.420Z,6.90
2023-03-29T05:28:55.440Z,6.90
2023-03-29T05:33:05.764Z,6.90
2023-03-29T05:37:14.620Z,6.90
2023-03-29T05:41:24.685Z,6.90
2023-03-29T05:45:33.964Z,7.00
2023-03-29T05:49:42.759Z,7.00
2023-03-29T05:53:52.221Z,7.10
2023-03-29T05:58:01.046Z,7.10
2023-03-29T06:02:10.851Z,7.20
2023-03-29T06:06:21.315Z,7.10
2023-03-29T06:10:30.210Z,7.10
2023-03-29T06:14:59.829Z,7.10
2023-03-29T06:19:08.878Z,7.10
2023-03-29T06:23:18.211Z,7.10
2023-03-29T06:27:26.756Z,7.20
2023-03-29T06:31:36.253Z,7.20
2023-03-29T06:35:47.246Z,7.30
2023-03-29T06:39:57.145Z,7.30
2023-03-29T06:44:06.093Z,7.40
2023-03-29T06:48:14.706Z,7.40
2023-03-29T06:52:23.328Z,7.40
2023-03-29T06:56:32.094Z,7.50
2023-03-29T07:00:42.026Z,7.50
2023-03-29T07:04:51.796Z,7.50
2023-03-29T07:09:01.794Z,7.50
2023-03-29T07:13:13.305Z,7.60
2023-03-29T07:17:22.860Z,7.60
2023-03-29T07:21:34.038Z,7.70
2023-03-29T07:25:43.256Z,7.70
2023-03-29T07:29:52.149Z,7.70
2023-03-29T07:34:00.979Z,7.80
2023-03-29T07:38:09.599Z,7.80
2023-03-29T07:42:18.330Z,7.80
2023-03-29T07:46:27.012Z,7.90
2023-03-29T07:50:35.687Z,7.90
2023-03-29T07:54:44.284Z,8.00
2023-03-29T07:58:52.962Z,8.00
2023-03-29T08:03:04.469Z,8.10
2023-03-29T08:07:13.622Z,8.10
2023-03-29T08:11:23.593Z,8.20
2023-03-29T08:15:32.278Z,8.30
2023-03-29T08:19:40.918Z,8.30
2023-03-29T08:23:51.084Z,8.40
2023-03-29T08:28:00.157Z,8.50
2023-03-29T08:32:08.713Z,8.40
2023-03-29T08:36:17.561Z,8.40
2023-03-29T08:40:30.011Z,8.40
2023-03-29T08:44:57.785Z,8.50
2023-03-29T08:49:08.753Z,8.60
2023-03-29T08:53:23.249Z,8.60
2023-03-29T08:57:37.846Z,8.60
2023-03-29T09:01:48.793Z,8.70
2023-03-29T09:06:00.922Z,8.80
2023-03-29T09:10:15.413Z,8.90
2023-03-29T09:14:39.806Z,9.00
2023-03-29T09:19:06.769Z,9.30
2023-03-29T09:23:46.949Z,9.40
2023-03-29T09:28:07.026Z,9.50
2023-03-29T09:32:22.413Z,9.60
2023-03-29T09:36:36.980Z,9.70
2023-03-29T09:41:01.337Z,9.90
2023-03-29T09:45:10.822Z,10.00
2023-03-29T09:49:22.492Z,10.00
2023-03-29T09:53:31.941Z,10.00
2023-03-29T09:57:40.675Z,10.20
2023-03-29T10:01:49.292Z,10.30
2023-03-29T10:06:03.629Z,10.40
2023-03-29T10:10:22.074Z,10.50
2023-03-29T10:14:46.393Z,10.60
2023-03-29T10:18:55.335Z,10.90
2023-03-29T10:23:05.869Z,11.20
2023-03-29T10:27:14.552Z,11.30
2023-03-29T10:31:25.029Z,11.40
2023-03-29T10:35:44.798Z,11.40
2023-03-29T10:39:55.296Z,11.40
2023-03-29T10:44:05.799Z,11.30
2023-03-29T10:48:16.398Z,11.30
2023-03-29T10:52:25.848Z,11.30
2023-03-29T10:56:50.806Z,11.30
2023-03-29T11:00:59.787Z,11.30
2023-03-29T11:05:24.894Z,11.30
2023-03-29T11:09:57.717Z,11.50
2023-03-29T11:14:24.331Z,11.70
2023-03-29T11:18:51.054Z,11.90
2023-03-29T11:23:02.698Z,12.30
2023-03-29T11:27:19.905Z,12.40
2023-03-29T11:31:57.324Z,12.50
2023-03-29T11:36:16.684Z,12.50
2023-03-29T11:40:43.457Z,12.60
2023-03-29T11:44:55.648Z,12.60
2023-03-29T11:49:23.981Z,12.70
2023-03-29T11:53:42.030Z,12.80
2023-03-29T11:58:05.273Z,12.90
2023-03-29T12:02:22.811Z,12.90
2023-03-29T12:06:34.721Z,12.80
2023-03-29T12:11:03.208Z,12.90
2023-03-29T12:15:26.685Z,13.00
2023-03-29T12:20:10.231Z,13.00
2023-03-29T12:24:21.662Z,12.90
2023-03-29T12:28:50.020Z,13.00
2023-03-29T12:33:35.618Z,13.10
2023-03-29T12:37:53.000Z,13.30
2023-03-29T12:42:41.875Z,13.50
2023-03-29T12:46:56.257Z,13.60
2023-03-29T12:51:07.529Z,13.70
2023-03-29T12:55:25.262Z,13.80
2023-03-29T12:59:42.941Z,13.80
2023-03-29T13:04:04.073Z,13.90
2023-03-29T13:08:24.413Z,14.10
2023-03-29T13:12:45.979Z,14.00
2023-03-29T13:16:58.305Z,13.90
2023-03-29T13:21:18.952Z,14.00
2023-03-29T13:25:46.141Z,14.10
2023-03-29T13:30:00.617Z,14.30
2023-03-29T13:34:27.528Z,14.30
2023-03-29T13:38:42.252Z,14.30
2023-03-29T13:43:03.119Z,14.40
2023-03-29T13:47:29.690Z,14.40
2023-03-29T13:51:50.360Z,14.40
2023-03-29T13:56:00.135Z,14.40
2023-03-29T14:00:21.767Z,14.50
2023-03-29T14:04:34.184Z,14.50
2023-03-29T14:08:44.653Z,14.50
2023-03-29T14:12:56.379Z,14.50
2023-03-29T14:17:06.154Z,14.40
2023-03-29T14:21:16.375Z,14.40
2023-03-29T14:25:25.659Z,14.40
2023-03-29T14:29:35.524Z,14.40
2023-03-29T14:33:44.147Z,14.60
2023-03-29T14:37:52.836Z,14.60
2023-03-29T14:42:02.386Z,14.60
2023-03-29T14:46:12.532Z,14.70
2023-03-29T14:50:24.481Z,14.70
2023-03-29T14:54:36.029Z,14.70
2023-03-29T14:58:49.803Z,14.60
2023-03-29T15:03:01.507Z,14.70
2023-03-29T15:07:10.235Z,14.60
2023-03-29T15:11:28.842Z,14.60
2023-03-29T15:15:39.428Z,14.70
2023-03-29T15:19:48.368Z,14.70
2023-03-29T15:23:59.620Z,14.60
2023-03-29T15:28:09.865Z,14.70
2023-03-29T15:32:27.094Z,14.80
2023-03-29T15:36:38.713Z,14.70
2023-03-29T15:40:48.814Z,14.70
2023-03-29T15:44:58.978Z,14.60
2023-03-29T15:49:09.064Z,14.50
2023-03-29T15:53:19.566Z,14.60
2023-03-29T15:57:29.616Z,14.70
2023-03-29T16:01:38.966Z,14.70
2023-03-29T16:05:48.050Z,14.70
2023-03-29T16:09:56.663Z,14.80
2023-03-29T16:14:08.009Z,14.90
2023-03-29T16:18:16.589Z,14.90
2023-03-29T16:22:25.236Z,14.80
2023-03-29T16:26:34.067Z,14.80
2023-03-29T16:30:44.439Z,14.70
2023-03-29T16:34:53.815Z,14.60
2023-03-29T16:39:03.126Z,14.40
2023-03-29T16:43:16.305Z,14.40
2023-03-29T16:47:25.008Z,14.30
2023-03-29T16:51:33.807Z,14.20
2023-03-29T16:55:42.839Z,14.10
2023-03-29T16:59:51.693Z,14.10
2023-03-29T17:04:01.938Z,14.10
2023-03-29T17:08:10.692Z,14.10
2023-03-29T17:12:21.111Z,14.00
2023-03-29T17:16:29.786Z,13.90
2023-03-29T17:20:40.306Z,13.90
2023-03-29T17:24:48.919Z,13.90
2023-03-29T17:28:57.546Z,13.80
2023-03-29T17:33:08.006Z,13.80
2023-03-29T17:37:17.437Z,13.80
2023-03-29T17:41:28.578Z,13.80
2023-03-29T17:45:37.360Z,13.70
2023-03-29T17:49:46.226Z,13.60
2023-03-29T17:53:56.694Z,13.60
2023-03-29T17:58:05.611Z,13.50
2023-03-29T18:02:17.568Z,13.40
2023-03-29T18:06:26.326Z,13.30
2023-03-29T18:10:41.486Z,13.30
2023-03-29T18:15:01.215Z,13.30
2023-03-29T18:19:10.779Z,13.20
2023-03-29T18:23:19.393Z,13.10
2023-03-29T18:27:28.020Z,13.10
2023-03-29T18:31:36.714Z,13.10
2023-03-29T18:35:52.565Z,13.00
2023-03-29T18:40:02.065Z,13.00
2023-03-29T18:44:10.833Z,12.90
2023-03-29T18:48:39.120Z,13.00
2023-03-29T18:52:48.230Z,13.00
2023-03-29T18:56:59.134Z,13.00
2023-03-29T19:01:07.946Z,13.00
2023-03-29T19:05:16.733Z,13.00
2023-03-29T19:09:25.381Z,13.00
2023-03-29T19:13:34.415Z,13.00
2023-03-29T19:17:43.119Z,13.00
2023-03-29T19:21:52.866Z,13.00
2023-03-29T19:26:03.512Z,13.00
2023-03-29T19:30:13.092Z,13.00
2023-03-29T19:34:23.369Z,13.10
2023-03-29T19:38:32.088Z,13.00
2023-03-29T19:42:41.158Z,12.90
2023-03-29T19:46:50.382Z,12.80
2023-03-29T19:51:03.844Z,12.90
2023-03-29T19:55:12.738Z,12.80
2023-03-29T19:59:21.324Z,12.80
2023-03-29T20:03:30.147Z,12.80
2023-03-29T20:07:39.035Z,12.80
2023-03-29T20:11:47.873Z,12.80
2023-03-29T20:15:56.570Z,12.70
2023-03-29T20:20:07.427Z,12.70
2023-03-29T20:24:16.624Z,12.60
2023-03-29T20:28:26.073Z,12.50
2023-03-29T20:32:34.827Z,12.50
2023-03-29T20:36:44.024Z,12.40
2023-03-29T20:40:53.399Z,12.30
2023-03-29T20:45:02.295Z,12.30
2023-03-29T20:49:10.874Z,12.30
2023-03-29T20:53:20.627Z,12.20
2023-03-29T20:57:30.594Z,12.20
2023-03-29T21:01:40.785Z,12.10
2023-03-29T21:05:52.870Z,12.00
2023-03-29T21:10:01.577Z,12.00
2023-03-29T21:14:10.148Z,12.00
2023-03-29T21:18:18.833Z,12.00
2023-03-29T21:22:27.885Z,12.00
2023-03-29T21:26:36.499Z,12.00
2023-03-29T21:30:45.273Z,11.90
2023-03-29T21:34:53.962Z,11.90
2023-03-29T21:39:02.582Z,11.90
2023-03-29T21:43:11.330Z,11.90
2023-03-29T21:47:20.052Z,11.80
2023-03-29T21:51:28.585Z,11.80
2023-03-29T21:55:37.188Z,11.80
2023-03-29T21:59:45.839Z,11.80
2023-03-29T22:03:54.570Z,11.80
2023-03-29T22:08:04.075Z,11.80
2023-03-29T22:12:12.655Z,11.80
2023-03-29T22:16:21.725Z,11.80
2023-03-29T22:20:30.321Z,11.70
2023-03-29T22:24:38.942Z,11.70
2023-03-29T22:28:47.817Z,11.70
2023-03-29T22:32:56.500Z,11.70
2023-03-29T22:37:05.544Z,11.70
2023-03-29T22:41:15.805Z,11.70
2023-03-29T22:45:24.446Z,11.70
2023-03-29T22:49:33.031Z,11.70
2023-03-29T22:53:42.013Z,11.60
2023-03-29T22:57:51.043Z,11.60
2023-03-29T23:01:59.715Z,11.60
2023-03-29T23:06:08.647Z,11.60
2023-03-29T23:10:17.446Z,11.50
2023-03-29T23:14:26.070Z,11.40
2023-03-29T23:18:36.661Z,11.40
2023-03-29T23:22:45.378Z,11.40
2023-03-29T23:26:55.340Z,11.40
2023-03-29T23:31:09.105Z,11.40
2023-03-29T23:35:18.225Z,11.40
2023-03-29T23:39:26.957Z,11.40
2023-03-29T23:43:39.825Z,11.40
2023-03-29T23:47:48.465Z,11.40
2023-03-29T23:51:58.781Z,11.40
2023-03-29T23:56:08.065Z,11.40
